sensor_id;sensor_type;location;lat;lon;timestamp;pressure;altitude;pressure_sealevel;temperature;humidity
11605;BME280;5858;43.076;25.626;2023-02-14T00:02:03;100776.38;;;-0.53;96.48
11605;BME280;5858;43.076;25.626;2023-02-14T00:04:36;100754.56;;;-0.55;96.45
11605;BME280;5858;43.076;25.626;2023-02-14T00:07:13;100763.16;;;-0.52;96.56
11605;BME280;5858;43.076;25.626;2023-02-14T00:09:47;100862.66;;;0.09;95.68
11605;BME280;5858;43.076;25.626;2023-02-14T00:12:22;100666.16;;;-1.08;95.50
11605;BME280;5858;43.076;25.626;2023-02-14T00:14:57;100831.06;;;-0.08;95.81
11605;BME280;5858;43.076;25.626;2023-02-14T00:17:45;100783.50;;;-0.55;95.44
11605;BME280;5858;43.076;25.626;2023-02-14T00:20:13;100697.28;;;-1.01;94.89
11605;BME280;5858;43.076;25.626;2023-02-14T00:22:55;100780.47;;;-0.48;95.70
11605;BME280;5858;43.076;25.626;2023-02-14T00:25:24;100822.34;;;-0.26;95.82
11605;BME280;5858;43.076;25.626;2023-02-14T00:27:54;100707.44;;;-0.93;96.22
11605;BME280;5858;43.076;25.626;2023-02-14T00:30:24;100864.81;;;0.01;97.31
11605;BME280;5858;43.076;25.626;2023-02-14T00:32:53;100751.78;;;-0.52;96.85
11605;BME280;5858;43.076;25.626;2023-02-14T00:35:22;100776.84;;;-0.28;97.58
11605;BME280;5858;43.076;25.626;2023-02-14T00:37:52;100713.22;;;-0.69;98.28
11605;BME280;5858;43.076;25.626;2023-02-14T00:40:19;100750.88;;;-0.51;98.44
11605;BME280;5858;43.076;25.626;2023-02-14T00:42:50;100756.81;;;-0.48;98.62
11605;BME280;5858;43.076;25.626;2023-02-14T00:45:19;100742.97;;;-0.51;98.30
11605;BME280;5858;43.076;25.626;2023-02-14T00:47:51;100682.09;;;-0.94;98.11
11605;BME280;5858;43.076;25.626;2023-02-14T00:50:19;100736.72;;;-0.66;97.78
11605;BME280;5858;43.076;25.626;2023-02-14T00:52:57;100674.50;;;-1.00;97.56
11605;BME280;5858;43.076;25.626;2023-02-14T00:55:26;100750.19;;;-0.38;96.86
11605;BME280;5858;43.076;25.626;2023-02-14T00:57:53;100826.56;;;0.11;96.29
11605;BME280;5858;43.076;25.626;2023-02-14T01:00:21;100737.97;;;-0.56;96.53
11605;BME280;5858;43.076;25.626;2023-02-14T01:02:57;100837.19;;;0.10;96.61
11605;BME280;5858;43.076;25.626;2023-02-14T01:05:30;100797.63;;;-0.06;96.51
11605;BME280;5858;43.076;25.626;2023-02-14T01:07:57;100740.34;;;-0.34;96.26
11605;BME280;5858;43.076;25.626;2023-02-14T01:10:25;100635.66;;;-0.93;96.12
11605;BME280;5858;43.076;25.626;2023-02-14T01:12:53;100760.31;;;-0.30;96.04
11605;BME280;5858;43.076;25.626;2023-02-14T01:15:20;100692.03;;;-0.66;95.84
11605;BME280;5858;43.076;25.626;2023-02-14T01:17:50;100719.97;;;-0.46;95.82
11605;BME280;5858;43.076;25.626;2023-02-14T01:20:19;100804.06;;;0.06;94.97
11605;BME280;5858;43.076;25.626;2023-02-14T01:22:46;100735.56;;;-0.26;95.65
11605;BME280;5858;43.076;25.626;2023-02-14T01:25:13;100613.72;;;-0.92;95.59
11605;BME280;5858;43.076;25.626;2023-02-14T01:27:43;100743.81;;;-0.16;95.14
11605;BME280;5858;43.076;25.626;2023-02-14T01:30:21;100740.50;;;-0.20;94.91
11605;BME280;5858;43.076;25.626;2023-02-14T01:32:52;100782.41;;;0.01;94.91
11605;BME280;5858;43.076;25.626;2023-02-14T01:35:22;100781.25;;;-0.11;95.14
11605;BME280;5858;43.076;25.626;2023-02-14T01:37:51;100673.50;;;-0.80;96.09
11605;BME280;5858;43.076;25.626;2023-02-14T01:40:24;100598.41;;;-1.19;95.65
11605;BME280;5858;43.076;25.626;2023-02-14T01:42:54;100748.47;;;-0.21;95.79
11605;BME280;5858;43.076;25.626;2023-02-14T01:45:25;100549.63;;;-1.40;95.44
11605;BME280;5858;43.076;25.626;2023-02-14T01:48:07;100726.66;;;-0.58;96.32
11605;BME280;5858;43.076;25.626;2023-02-14T01:50:39;100556.41;;;-1.36;95.97
11605;BME280;5858;43.076;25.626;2023-02-14T01:53:11;100537.53;;;-1.44;95.93
11605;BME280;5858;43.076;25.626;2023-02-14T01:55:43;100714.06;;;-0.34;96.44
11605;BME280;5858;43.076;25.626;2023-02-14T01:58:14;100641.75;;;-0.76;95.88
11605;BME280;5858;43.076;25.626;2023-02-14T02:00:43;100529.44;;;-1.57;95.79
11605;BME280;5858;43.076;25.626;2023-02-14T02:03:28;100668.44;;;-0.50;96.47
11605;BME280;5858;43.076;25.626;2023-02-14T02:06:06;100662.34;;;-0.51;95.93
11605;BME280;5858;43.076;25.626;2023-02-14T02:08:37;100639.41;;;-0.65;96.23
11605;BME280;5858;43.076;25.626;2023-02-14T02:11:06;100688.69;;;-0.52;95.93
11605;BME280;5858;43.076;25.626;2023-02-14T02:13:33;100650.22;;;-0.71;96.58
11605;BME280;5858;43.076;25.626;2023-02-14T02:16:14;100635.94;;;-0.82;96.46
11605;BME280;5858;43.076;25.626;2023-02-14T02:18:59;100583.78;;;-1.07;95.92
11605;BME280;5858;43.076;25.626;2023-02-14T02:21:55;100631.47;;;-0.80;95.75
11605;BME280;5858;43.076;25.626;2023-02-14T02:24:34;100684.00;;;-0.46;95.84
11605;BME280;5858;43.076;25.626;2023-02-14T02:27:28;100595.53;;;-0.97;95.57
11605;BME280;5858;43.076;25.626;2023-02-14T02:30:27;100698.88;;;-0.29;95.51
11605;BME280;5858;43.076;25.626;2023-02-14T02:36:40;100602.13;;;-0.88;95.36
11605;BME280;5858;43.076;25.626;2023-02-14T02:39:28;100679.09;;;-0.36;95.37
11605;BME280;5858;43.076;25.626;2023-02-14T02:42:05;100627.28;;;-0.67;95.73
11605;BME280;5858;43.076;25.626;2023-02-14T02:44:43;100686.91;;;-0.52;95.19
11605;BME280;5858;43.076;25.626;2023-02-14T02:47:22;100689.88;;;-0.41;95.32
11605;BME280;5858;43.076;25.626;2023-02-14T02:49:57;100593.22;;;-0.86;95.70
11605;BME280;5858;43.076;25.626;2023-02-14T02:52:54;100724.28;;;-0.45;95.65
11605;BME280;5858;43.076;25.626;2023-02-14T02:55:42;100704.22;;;-0.48;95.76
11605;BME280;5858;43.076;25.626;2023-02-14T02:58:32;100593.78;;;-1.31;96.05
11605;BME280;5858;43.076;25.626;2023-02-14T03:01:03;100684.38;;;-0.53;96.19
11605;BME280;5858;43.076;25.626;2023-02-14T03:03:34;100629.00;;;-0.83;95.99
11605;BME280;5858;43.076;25.626;2023-02-14T03:06:19;100671.38;;;-0.56;96.26
11605;BME280;5858;43.076;25.626;2023-02-14T03:08:55;100586.41;;;-1.07;96.65
11605;BME280;5858;43.076;25.626;2023-02-14T03:11:24;100561.25;;;-1.29;96.12
11605;BME280;5858;43.076;25.626;2023-02-14T03:14:07;100486.50;;;-1.91;95.99
11605;BME280;5858;43.076;25.626;2023-02-14T03:16:53;100509.75;;;-1.66;95.86
11605;BME280;5858;43.076;25.626;2023-02-14T03:19:41;100486.22;;;-1.84;96.18
11605;BME280;5858;43.076;25.626;2023-02-14T03:22:38;100579.41;;;-1.24;96.18
11605;BME280;5858;43.076;25.626;2023-02-14T03:25:25;100525.66;;;-1.51;96.44
11605;BME280;5858;43.076;25.626;2023-02-14T03:28:06;100635.25;;;-0.86;96.49
11605;BME280;5858;43.076;25.626;2023-02-14T03:30:47;100497.88;;;-1.73;96.54
11605;BME280;5858;43.076;25.626;2023-02-14T03:33:23;100515.25;;;-1.70;96.37
11605;BME280;5858;43.076;25.626;2023-02-14T03:36:00;100520.41;;;-1.69;97.08
11605;BME280;5858;43.076;25.626;2023-02-14T03:38:32;100473.78;;;-1.98;97.86
11605;BME280;5858;43.076;25.626;2023-02-14T03:41:06;100551.03;;;-1.69;98.06
11605;BME280;5858;43.076;25.626;2023-02-14T03:43:40;100538.53;;;-1.47;97.91
11605;BME280;5858;43.076;25.626;2023-02-14T03:46:12;100585.19;;;-1.17;98.16
11605;BME280;5858;43.076;25.626;2023-02-14T03:48:42;100482.72;;;-2.02;97.08
11605;BME280;5858;43.076;25.626;2023-02-14T03:51:12;100563.34;;;-1.35;97.20
11605;BME280;5858;43.076;25.626;2023-02-14T03:53:43;100625.66;;;-1.04;97.47
11605;BME280;5858;43.076;25.626;2023-02-14T03:56:16;100487.00;;;-1.82;97.38
11605;BME280;5858;43.076;25.626;2023-02-14T03:58:47;100610.91;;;-1.07;97.41
11605;BME280;5858;43.076;25.626;2023-02-14T04:01:21;100503.13;;;-1.73;96.89
11605;BME280;5858;43.076;25.626;2023-02-14T04:03:56;100565.81;;;-1.32;97.05
11605;BME280;5858;43.076;25.626;2023-02-14T04:06:25;100427.63;;;-2.19;96.66
11605;BME280;5858;43.076;25.626;2023-02-14T04:08:57;100523.56;;;-1.45;96.41
11605;BME280;5858;43.076;25.626;2023-02-14T04:14:45;100591.06;;;-1.30;96.87
11605;BME280;5858;43.076;25.626;2023-02-14T04:17:12;100423.16;;;-2.17;96.33
11605;BME280;5858;43.076;25.626;2023-02-14T04:19:59;100414.75;;;-2.24;96.47
11605;BME280;5858;43.076;25.626;2023-02-14T04:22:52;100590.06;;;-1.10;96.63
11605;BME280;5858;43.076;25.626;2023-02-14T04:25:25;100398.97;;;-2.23;96.72
11605;BME280;5858;43.076;25.626;2023-02-14T04:27:52;100424.25;;;-2.04;97.27
11605;BME280;5858;43.076;25.626;2023-02-14T04:30:22;100507.38;;;-1.53;97.64
11605;BME280;5858;43.076;25.626;2023-02-14T04:32:53;100553.28;;;-1.44;97.61
11605;BME280;5858;43.076;25.626;2023-02-14T04:35:25;100360.06;;;-2.49;98.25
11605;BME280;5858;43.076;25.626;2023-02-14T04:37:53;100475.88;;;-1.70;98.77
11605;BME280;5858;43.076;25.626;2023-02-14T04:40:31;100540.41;;;-1.32;98.63
11605;BME280;5858;43.076;25.626;2023-02-14T04:43:02;100512.47;;;-1.50;98.38
11605;BME280;5858;43.076;25.626;2023-02-14T04:45:38;100449.84;;;-1.92;98.55
11605;BME280;5858;43.076;25.626;2023-02-14T04:48:07;100409.28;;;-2.19;97.83
11605;BME280;5858;43.076;25.626;2023-02-14T04:50:35;100364.56;;;-2.34;97.45
11605;BME280;5858;43.076;25.626;2023-02-14T04:53:02;100473.88;;;-1.82;97.28
11605;BME280;5858;43.076;25.626;2023-02-14T04:55:30;100558.25;;;-1.38;97.22
11605;BME280;5858;43.076;25.626;2023-02-14T04:58:03;100473.03;;;-1.83;96.75
11605;BME280;5858;43.076;25.626;2023-02-14T05:00:35;100418.31;;;-2.25;98.00
11605;BME280;5858;43.076;25.626;2023-02-14T05:03:03;100446.84;;;-2.02;98.03
11605;BME280;5858;43.076;25.626;2023-02-14T05:05:34;100509.84;;;-1.67;98.49
11605;BME280;5858;43.076;25.626;2023-02-14T05:08:16;100564.03;;;-1.49;98.32
11605;BME280;5858;43.076;25.626;2023-02-14T05:10:45;100596.56;;;-1.17;97.62
11605;BME280;5858;43.076;25.626;2023-02-14T05:13:14;100588.91;;;-1.21;97.20
11605;BME280;5858;43.076;25.626;2023-02-14T05:15:45;100573.53;;;-1.46;97.30
11605;BME280;5858;43.076;25.626;2023-02-14T05:18:12;100411.16;;;-2.40;97.29
11605;BME280;5858;43.076;25.626;2023-02-14T05:20:41;100560.69;;;-1.52;98.35
11605;BME280;5858;43.076;25.626;2023-02-14T05:23:19;100420.38;;;-2.32;98.40
11605;BME280;5858;43.076;25.626;2023-02-14T05:25:58;100615.47;;;-1.28;98.78
11605;BME280;5858;43.076;25.626;2023-02-14T05:28:27;100562.66;;;-1.39;98.96
11605;BME280;5858;43.076;25.626;2023-02-14T05:31:00;100557.56;;;-1.42;98.36
11605;BME280;5858;43.076;25.626;2023-02-14T05:33:36;100404.00;;;-2.37;98.16
11605;BME280;5858;43.076;25.626;2023-02-14T05:36:14;100514.09;;;-1.65;97.96
11605;BME280;5858;43.076;25.626;2023-02-14T05:39:07;100436.44;;;-2.20;98.22
11605;BME280;5858;43.076;25.626;2023-02-14T05:41:39;100475.81;;;-1.86;98.36
11605;BME280;5858;43.076;25.626;2023-02-14T05:44:07;100464.25;;;-1.82;98.50
11605;BME280;5858;43.076;25.626;2023-02-14T05:46:37;100611.00;;;-0.91;98.53
11605;BME280;5858;43.076;25.626;2023-02-14T05:49:09;100593.06;;;-1.17;99.04
11605;BME280;5858;43.076;25.626;2023-02-14T05:51:36;100468.25;;;-1.75;99.32
11605;BME280;5858;43.076;25.626;2023-02-14T05:54:10;100458.97;;;-1.65;98.51
11605;BME280;5858;43.076;25.626;2023-02-14T05:56:43;100521.66;;;-1.41;98.51
11605;BME280;5858;43.076;25.626;2023-02-14T05:59:10;100520.09;;;-1.28;99.26
11605;BME280;5858;43.076;25.626;2023-02-14T06:02:11;100622.69;;;-0.46;99.38
11605;BME280;5858;43.076;25.626;2023-02-14T06:04:38;100615.91;;;-0.68;99.83
11605;BME280;5858;43.076;25.626;2023-02-14T06:07:33;100493.44;;;-1.20;99.82
11605;BME280;5858;43.076;25.626;2023-02-14T06:10:23;100628.72;;;-0.28;99.38
11605;BME280;5858;43.076;25.626;2023-02-14T06:12:57;100524.41;;;-0.77;98.51
11605;BME280;5858;43.076;25.626;2023-02-14T06:15:38;100651.66;;;-0.15;98.04
11605;BME280;5858;43.076;25.626;2023-02-14T06:21:50;100613.94;;;0.02;96.95
11605;BME280;5858;43.076;25.626;2023-02-14T06:31:51;100616.31;;;0.22;95.47
11605;BME280;5858;43.076;25.626;2023-02-14T06:34:30;100512.69;;;-0.38;95.86
11605;BME280;5858;43.076;25.626;2023-02-14T06:37:07;100519.06;;;-0.42;96.86
11605;BME280;5858;43.076;25.626;2023-02-14T06:39:49;100434.06;;;-0.74;97.24
11605;BME280;5858;43.076;25.626;2023-02-14T06:42:36;100478.59;;;-0.40;96.99
11605;BME280;5858;43.076;25.626;2023-02-14T07:06:23;100457.59;;;-0.10;94.80
11605;BME280;5858;43.076;25.626;2023-02-14T07:12:55;100625.31;;;1.24;94.75
11605;BME280;5858;43.076;25.626;2023-02-14T07:16:02;100469.78;;;0.37;94.78
11605;BME280;5858;43.076;25.626;2023-02-14T07:22:18;100628.84;;;1.53;93.95
11605;BME280;5858;43.076;25.626;2023-02-14T07:25:22;100628.94;;;1.66;93.89
11605;BME280;5858;43.076;25.626;2023-02-14T07:32:33;100639.69;;;1.91;93.62
11605;BME280;5858;43.076;25.626;2023-02-14T07:58:34;100650.94;;;3.42;88.88
11605;BME280;5858;43.076;25.626;2023-02-14T08:08:29;100644.16;;;3.89;83.79
11605;BME280;5858;43.076;25.626;2023-02-14T08:25:33;100476.31;;;3.42;79.71
11605;BME280;5858;43.076;25.626;2023-02-14T08:36:04;100597.97;;;4.53;78.18
11605;BME280;5858;43.076;25.626;2023-02-14T08:38:22;100578.53;;;4.41;79.35
11605;BME280;5858;43.076;25.626;2023-02-14T08:48:20;100470.53;;;3.37;78.27
11605;BME280;5858;43.076;25.626;2023-02-14T08:57:43;100531.22;;;4.24;77.29
11605;BME280;5858;43.076;25.626;2023-02-14T09:07:05;100546.91;;;4.86;77.50
11605;BME280;5858;43.076;25.626;2023-02-14T09:10:46;100601.88;;;5.30;76.58
11605;BME280;5858;43.076;25.626;2023-02-14T09:15:45;100566.06;;;5.47;75.51
11605;BME280;5858;43.076;25.626;2023-02-14T09:18:35;100519.25;;;5.35;74.31
11605;BME280;5858;43.076;25.626;2023-02-14T09:23:03;100450.84;;;5.05;72.69
11605;BME280;5858;43.076;25.626;2023-02-14T09:24:51;100553.03;;;6.00;73.14
11605;BME280;5858;43.076;25.626;2023-02-14T09:27:49;100542.03;;;5.93;71.47
11605;BME280;5858;43.076;25.626;2023-02-14T09:30:30;100585.72;;;6.12;70.71
11605;BME280;5858;43.076;25.626;2023-02-14T09:33:09;100615.06;;;6.32;70.87
11605;BME280;5858;43.076;25.626;2023-02-14T09:38:56;100403.53;;;5.44;69.81
11605;BME280;5858;43.076;25.626;2023-02-14T09:43:27;100575.66;;;6.70;69.66
11605;BME280;5858;43.076;25.626;2023-02-14T09:45:36;100426.00;;;5.83;68.88
11605;BME280;5858;43.076;25.626;2023-02-14T09:48:39;100556.28;;;6.47;68.63
11605;BME280;5858;43.076;25.626;2023-02-14T10:01:39;100435.47;;;6.19;66.32
11605;BME280;5858;43.076;25.626;2023-02-14T10:05:08;100584.13;;;7.37;65.20
11605;BME280;5858;43.076;25.626;2023-02-14T10:14:27;100522.47;;;6.90;65.51
11605;BME280;5858;43.076;25.626;2023-02-14T10:17:04;100502.03;;;6.91;64.65
11605;BME280;5858;43.076;25.626;2023-02-14T10:19:56;100444.53;;;6.58;64.53
11605;BME280;5858;43.076;25.626;2023-02-14T10:22:45;100567.13;;;7.08;64.21
11605;BME280;5858;43.076;25.626;2023-02-14T10:25:27;100514.94;;;6.95;65.90
11605;BME280;5858;43.076;25.626;2023-02-14T10:32:14;100433.47;;;6.32;65.27
11605;BME280;5858;43.076;25.626;2023-02-14T10:35:23;100576.13;;;7.58;63.87
11605;BME280;5858;43.076;25.626;2023-02-14T10:38:21;100429.88;;;6.84;64.41
11605;BME280;5858;43.076;25.626;2023-02-14T10:41:34;100434.28;;;6.95;63.72
11605;BME280;5858;43.076;25.626;2023-02-14T11:22:31;100397.38;;;6.60;64.80
11605;BME280;5858;43.076;25.626;2023-02-14T11:25:17;100515.13;;;7.24;65.47
11605;BME280;5858;43.076;25.626;2023-02-14T11:28:30;100389.75;;;6.25;66.32
11605;BME280;5858;43.076;25.626;2023-02-14T11:34:46;100416.41;;;6.55;67.03
11605;BME280;5858;43.076;25.626;2023-02-14T12:04:32;100388.63;;;7.00;64.95
11605;BME280;5858;43.076;25.626;2023-02-14T12:10:49;100303.03;;;6.85;65.20
11605;BME280;5858;43.076;25.626;2023-02-14T12:24:11;100325.97;;;6.76;66.73
11605;BME280;5858;43.076;25.626;2023-02-14T12:30:49;100455.50;;;7.46;67.25
11605;BME280;5858;43.076;25.626;2023-02-14T12:34:19;100461.66;;;7.47;66.12
11605;BME280;5858;43.076;25.626;2023-02-14T12:37:16;100392.00;;;7.02;66.66
11605;BME280;5858;43.076;25.626;2023-02-14T12:58:08;100318.28;;;6.52;68.64
11605;BME280;5858;43.076;25.626;2023-02-14T13:01:23;100359.97;;;6.73;67.80
11605;BME280;5858;43.076;25.626;2023-02-14T13:48:44;100285.94;;;5.96;69.62
11605;BME280;5858;43.076;25.626;2023-02-14T14:42:51;100343.22;;;6.30;71.51
11605;BME280;5858;43.076;25.626;2023-02-14T14:45:47;100410.19;;;6.66;71.03
11605;BME280;5858;43.076;25.626;2023-02-14T14:56:09;100385.69;;;6.21;72.36
11605;BME280;5858;43.076;25.626;2023-02-14T15:19:53;100381.41;;;6.81;70.70
11605;BME280;5858;43.076;25.626;2023-02-14T15:22:26;100244.97;;;5.78;71.80
11605;BME280;5858;43.076;25.626;2023-02-14T15:24:54;100403.19;;;6.65;72.17
11605;BME280;5858;43.076;25.626;2023-02-14T15:27:26;100291.22;;;5.75;72.95
11605;BME280;5858;43.076;25.626;2023-02-14T15:30:06;100345.94;;;5.98;73.64
11605;BME280;5858;43.076;25.626;2023-02-14T15:32:39;100304.50;;;5.64;73.61
11605;BME280;5858;43.076;25.626;2023-02-14T15:35:15;100248.63;;;5.13;74.64
11605;BME280;5858;43.076;25.626;2023-02-14T15:37:44;100345.06;;;5.66;74.71
11605;BME280;5858;43.076;25.626;2023-02-14T15:40:16;100344.13;;;5.56;76.19
11605;BME280;5858;43.076;25.626;2023-02-14T15:42:44;100239.06;;;4.78;75.71
11605;BME280;5858;43.076;25.626;2023-02-14T15:45:20;100326.72;;;5.20;76.28
11605;BME280;5858;43.076;25.626;2023-02-14T15:47:58;100406.13;;;5.66;76.55
11605;BME280;5858;43.076;25.626;2023-02-14T15:50:58;100363.75;;;5.32;76.81
11605;BME280;5858;43.076;25.626;2023-02-14T15:53:38;100238.84;;;4.48;76.57
11605;BME280;5858;43.076;25.626;2023-02-14T15:56:09;100269.78;;;4.69;77.00
11605;BME280;5858;43.076;25.626;2023-02-14T15:59:41;100419.09;;;5.48;77.47
11605;BME280;5858;43.076;25.626;2023-02-14T16:02:38;100255.50;;;4.38;77.06
11605;BME280;5858;43.076;25.626;2023-02-14T16:08:43;100319.31;;;4.69;78.17
11605;BME280;5858;43.076;25.626;2023-02-14T16:11:13;100433.50;;;5.23;78.03
11605;BME280;5858;43.076;25.626;2023-02-14T16:13:46;100424.06;;;5.19;78.81
11605;BME280;5858;43.076;25.626;2023-02-14T16:16:14;100297.03;;;4.38;78.20
11605;BME280;5858;43.076;25.626;2023-02-14T16:18:48;100354.25;;;4.52;78.83
11605;BME280;5858;43.076;25.626;2023-02-14T16:24:45;100437.56;;;4.94;79.37
11605;BME280;5858;43.076;25.626;2023-02-14T16:30:47;100454.44;;;4.93;80.14
11605;BME280;5858;43.076;25.626;2023-02-14T16:33:45;100288.84;;;3.72;80.04
11605;BME280;5858;43.076;25.626;2023-02-14T16:36:25;100276.06;;;3.66;80.09
11605;BME280;5858;43.076;25.626;2023-02-14T16:39:16;100476.72;;;4.79;80.51
11605;BME280;5858;43.076;25.626;2023-02-14T16:52:22;100352.81;;;3.66;81.96
11605;BME280;5858;43.076;25.626;2023-02-14T16:55:05;100470.50;;;4.45;82.52
11605;BME280;5858;43.076;25.626;2023-02-14T16:57:37;100465.56;;;4.52;82.90
11605;BME280;5858;43.076;25.626;2023-02-14T17:00:08;100287.25;;;3.35;82.81
11605;BME280;5858;43.076;25.626;2023-02-14T17:02:36;100467.00;;;4.45;83.65
11605;BME280;5858;43.076;25.626;2023-02-14T17:05:09;100456.06;;;4.25;83.19
11605;BME280;5858;43.076;25.626;2023-02-14T17:07:40;100382.78;;;3.91;83.47
11605;BME280;5858;43.076;25.626;2023-02-14T17:10:13;100470.13;;;4.38;84.21
11605;BME280;5858;43.076;25.626;2023-02-14T17:12:45;100446.56;;;4.23;83.82
11605;BME280;5858;43.076;25.626;2023-02-14T17:15:15;100364.97;;;3.69;83.78
11605;BME280;5858;43.076;25.626;2023-02-14T17:17:56;100375.66;;;3.67;84.05
11605;BME280;5858;43.076;25.626;2023-02-14T17:20:25;100410.22;;;3.90;83.65
11605;BME280;5858;43.076;25.626;2023-02-14T17:22:57;100368.63;;;3.55;83.41
11605;BME280;5858;43.076;25.626;2023-02-14T17:25:27;100441.19;;;4.00;83.74
11605;BME280;5858;43.076;25.626;2023-02-14T17:27:54;100363.97;;;3.59;83.82
11605;BME280;5858;43.076;25.626;2023-02-14T17:30:22;100391.66;;;3.66;83.60
11605;BME280;5858;43.076;25.626;2023-02-14T17:32:51;100385.13;;;3.59;83.29
11605;BME280;5858;43.076;25.626;2023-02-14T17:35:18;100340.16;;;3.35;83.41
11605;BME280;5858;43.076;25.626;2023-02-14T17:37:48;100393.91;;;3.59;84.15
11605;BME280;5858;43.076;25.626;2023-02-14T17:40:20;100409.34;;;3.41;84.38
11605;BME280;5858;43.076;25.626;2023-02-14T17:42:47;100460.84;;;3.85;84.11
11605;BME280;5858;43.076;25.626;2023-02-14T17:45:15;100394.31;;;3.42;84.61
11605;BME280;5858;43.076;25.626;2023-02-14T17:47:42;100432.53;;;3.62;84.47
11605;BME280;5858;43.076;25.626;2023-02-14T17:50:12;100374.47;;;3.24;84.73
11605;BME280;5858;43.076;25.626;2023-02-14T17:52:55;100398.66;;;3.30;84.88
11605;BME280;5858;43.076;25.626;2023-02-14T18:02:38;100450.19;;;3.37;85.41
11605;BME280;5858;43.076;25.626;2023-02-14T18:05:25;100326.81;;;2.63;85.41
11605;BME280;5858;43.076;25.626;2023-02-14T18:08:19;100332.09;;;2.63;85.38
11605;BME280;5858;43.076;25.626;2023-02-14T18:14:41;100505.91;;;3.60;86.49
11605;BME280;5858;43.076;25.626;2023-02-14T18:24:19;100446.09;;;3.21;86.01
11605;BME280;5858;43.076;25.626;2023-02-14T18:27:08;100430.63;;;3.27;86.30
11605;BME280;5858;43.076;25.626;2023-02-14T18:35:13;100451.88;;;3.38;85.81
11605;BME280;5858;43.076;25.626;2023-02-14T19:44:57;100521.84;;;3.34;86.33
11605;BME280;5858;43.076;25.626;2023-02-14T20:08:11;100357.34;;;2.29;85.57
11605;BME280;5858;43.076;25.626;2023-02-14T20:10:46;100428.91;;;2.64;85.72
11605;BME280;5858;43.076;25.626;2023-02-14T20:13:23;100455.84;;;2.82;86.11
11605;BME280;5858;43.076;25.626;2023-02-14T20:15:54;100521.31;;;3.04;86.20
11605;BME280;5858;43.076;25.626;2023-02-14T20:18:28;100385.22;;;2.33;86.12
11605;BME280;5858;43.076;25.626;2023-02-14T20:21:00;100375.19;;;2.13;86.44
11605;BME280;5858;43.076;25.626;2023-02-14T20:23:40;100468.09;;;2.70;86.51
11605;BME280;5858;43.076;25.626;2023-02-14T20:26:25;100407.22;;;2.46;85.99
11605;BME280;5858;43.076;25.626;2023-02-14T20:29:00;100368.41;;;2.09;86.55
11605;BME280;5858;43.076;25.626;2023-02-14T20:31:29;100549.00;;;3.24;86.71
11605;BME280;5858;43.076;25.626;2023-02-14T20:34:02;100383.09;;;2.26;86.02
11605;BME280;5858;43.076;25.626;2023-02-14T20:36:33;100582.34;;;3.26;86.45
11605;BME280;5858;43.076;25.626;2023-02-14T20:39:06;100515.19;;;2.91;86.46
11605;BME280;5858;43.076;25.626;2023-02-14T20:41:34;100508.31;;;2.88;86.94
11605;BME280;5858;43.076;25.626;2023-02-14T20:44:15;100493.69;;;2.82;86.88
11605;BME280;5858;43.076;25.626;2023-02-14T20:46:45;100353.09;;;2.01;86.65
11605;BME280;5858;43.076;25.626;2023-02-14T20:49:14;100462.38;;;2.51;85.98
11605;BME280;5858;43.076;25.626;2023-02-14T20:51:58;100492.22;;;2.78;85.79
11605;BME280;5858;43.076;25.626;2023-02-14T20:54:37;100489.34;;;2.81;86.52
11605;BME280;5858;43.076;25.626;2023-02-14T20:57:16;100498.47;;;2.90;86.13
11605;BME280;5858;43.076;25.626;2023-02-14T20:59:46;100533.69;;;3.03;86.20
11605;BME280;5858;43.076;25.626;2023-02-14T21:03:35;100571.88;;;3.25;86.43
11605;BME280;5858;43.076;25.626;2023-02-14T21:06:23;100486.28;;;2.49;86.67
11605;BME280;5858;43.076;25.626;2023-02-14T21:09:38;100414.13;;;2.09;86.54
11605;BME280;5858;43.076;25.626;2023-02-14T21:12:25;100582.25;;;3.15;86.39
11605;BME280;5858;43.076;25.626;2023-02-14T21:14:52;100588.16;;;3.19;86.59
11605;BME280;5858;43.076;25.626;2023-02-14T21:17:19;100479.81;;;2.53;86.31
11605;BME280;5858;43.076;25.626;2023-02-14T21:19:46;100571.56;;;3.16;86.25
11605;BME280;5858;43.076;25.626;2023-02-14T21:22:14;100412.25;;;2.24;85.87
11605;BME280;5858;43.076;25.626;2023-02-14T21:24:41;100482.28;;;2.69;85.37
11605;BME280;5858;43.076;25.626;2023-02-14T21:27:08;100430.31;;;2.30;85.59
11605;BME280;5858;43.076;25.626;2023-02-14T21:29:37;100463.97;;;2.66;85.42
11605;BME280;5858;43.076;25.626;2023-02-14T21:32:22;100436.81;;;2.51;84.41
11605;BME280;5858;43.076;25.626;2023-02-14T21:38:43;100459.44;;;2.68;84.64
11605;BME280;5858;43.076;25.626;2023-02-14T21:41:45;100544.78;;;3.21;84.11
11605;BME280;5858;43.076;25.626;2023-02-14T21:44:45;100446.00;;;2.46;84.71
11605;BME280;5858;43.076;25.626;2023-02-14T21:47:51;100500.47;;;2.87;83.43
11605;BME280;5858;43.076;25.626;2023-02-14T21:50:47;100528.19;;;3.06;84.27
11605;BME280;5858;43.076;25.626;2023-02-14T21:53:25;100637.06;;;3.64;83.36
11605;BME280;5858;43.076;25.626;2023-02-14T22:02:59;100647.34;;;3.81;83.20
11605;BME280;5858;43.076;25.626;2023-02-14T22:06:00;100621.38;;;3.73;83.02
11605;BME280;5858;43.076;25.626;2023-02-14T22:12:26;100655.69;;;3.75;83.03
11605;BME280;5858;43.076;25.626;2023-02-14T22:15:24;100646.19;;;3.85;83.01
11605;BME280;5858;43.076;25.626;2023-02-14T22:18:13;100579.16;;;3.59;82.42
11605;BME280;5858;43.076;25.626;2023-02-14T22:20:47;100465.03;;;2.76;83.09
11605;BME280;5858;43.076;25.626;2023-02-14T22:23:17;100520.47;;;3.16;81.93
11605;BME280;5858;43.076;25.626;2023-02-14T22:25:46;100475.28;;;2.81;82.37
11605;BME280;5858;43.076;25.626;2023-02-14T22:28:13;100555.38;;;3.34;83.01
11605;BME280;5858;43.076;25.626;2023-02-14T22:30:43;100475.72;;;2.75;82.60
11605;BME280;5858;43.076;25.626;2023-02-14T22:33:18;100451.41;;;2.70;82.96
11605;BME280;5858;43.076;25.626;2023-02-14T22:35:53;100591.25;;;3.38;82.56
11605;BME280;5858;43.076;25.626;2023-02-14T22:38:20;100484.19;;;2.80;82.40
11605;BME280;5858;43.076;25.626;2023-02-14T22:40:48;100474.91;;;2.87;82.32
11605;BME280;5858;43.076;25.626;2023-02-14T22:43:16;100482.94;;;2.86;82.34